createdAt,value
2023-02-14T00:00:44.256Z,9.47
2023-02-14T00:03:46.578Z,9.50
2023-02-14T00:06:48.604Z,8.40
2023-02-14T00:09:50.853Z,8.03
2023-02-14T00:12:52.941Z,7.30
2023-02-14T00:15:56.031Z,6.50
2023-02-14T00:19:04.323Z,6.10
2023-02-14T00:22:06.686Z,5.00
2023-02-14T00:25:08.742Z,4.93
2023-02-14T00:28:11.300Z,4.03
2023-02-14T00:31:13.398Z,4.27
2023-02-14T00:34:16.990Z,5.07
2023-02-14T00:37:18.925Z,5.03
2023-02-14T00:40:21.711Z,5.87
2023-02-14T00:43:23.634Z,5.50
2023-02-14T00:46:26.556Z,6.40
2023-02-14T00:49:28.530Z,7.67
2023-02-14T00:52:32.387Z,8.07
2023-02-14T00:55:34.371Z,8.87
2023-02-14T00:58:36.426Z,10.47
2023-02-14T01:01:39.021Z,14.47
2023-02-14T01:04:41.055Z,14.53
2023-02-14T01:07:42.978Z,12.07
2023-02-14T01:10:45.222Z,13.37
2023-02-14T01:13:49.450Z,13.07
2023-02-14T01:16:51.523Z,12.07
2023-02-14T01:19:54.095Z,11.50
2023-02-14T01:22:56.036Z,10.57
2023-02-14T01:25:57.956Z,10.80
2023-02-14T01:29:00.541Z,11.90
2023-02-14T01:32:02.617Z,13.33
2023-02-14T01:35:05.044Z,11.77
2023-02-14T01:38:07.037Z,11.20
2023-02-14T01:41:09.094Z,12.53
2023-02-14T01:44:14.204Z,12.43
2023-02-14T01:47:16.862Z,11.83
2023-02-14T01:50:23.073Z,12.27
2023-02-14T01:53:28.548Z,11.47
2023-02-14T01:56:36.068Z,11.53
2023-02-14T01:59:43.114Z,12.13
2023-02-14T02:02:45.145Z,11.43
2023-02-14T02:05:52.816Z,11.87
2023-02-14T02:08:54.682Z,11.97
2023-02-14T02:11:56.650Z,11.97
2023-02-14T02:14:59.828Z,12.03
2023-02-14T02:18:34.088Z,11.23
2023-02-14T02:21:54.797Z,10.47
2023-02-14T02:25:02.429Z,8.77
2023-02-14T02:28:04.573Z,8.53
2023-02-14T02:31:21.706Z,8.30
2023-02-14T02:34:55.074Z,8.10
2023-02-14T02:38:16.449Z,7.90
2023-02-14T02:41:40.815Z,8.17
2023-02-14T02:45:01.673Z,9.90
2023-02-14T02:48:18.976Z,9.03
2023-02-14T02:51:46.600Z,9.10
2023-02-14T02:54:55.082Z,8.33
2023-02-14T02:57:58.955Z,5.87
2023-02-14T03:01:06.432Z,5.97
2023-02-14T03:04:30.798Z,3.00
2023-02-14T03:07:36.807Z,2.10
2023-02-14T03:10:39.799Z,1.80
2023-02-14T03:13:53.505Z,2.20
2023-02-14T03:17:05.537Z,1.90
2023-02-14T03:20:38.929Z,1.50
2023-02-14T03:24:06.890Z,1.50
2023-02-14T03:27:23.057Z,1.30
2023-02-14T03:30:37.071Z,1.20
2023-02-14T03:34:00.187Z,1.40
2023-02-14T03:37:12.184Z,1.30
2023-02-14T03:40:24.040Z,1.00
2023-02-14T03:43:31.251Z,0.97
2023-02-14T03:46:53.388Z,1.37
2023-02-14T03:50:04.775Z,1.30
2023-02-14T03:53:09.275Z,1.37
2023-02-14T03:56:27.720Z,2.60
2023-02-14T03:59:29.933Z,2.00
2023-02-14T04:02:36.228Z,2.03
2023-02-14T04:05:42.549Z,1.60
2023-02-14T04:08:44.781Z,1.37
2023-02-14T04:11:47.216Z,1.10
2023-02-14T04:14:49.256Z,1.23
2023-02-14T04:18:09.854Z,0.80
2023-02-14T04:21:11.989Z,0.93
2023-02-14T04:24:13.926Z,1.30
2023-02-14T04:27:16.525Z,1.10
2023-02-14T04:30:21.027Z,1.07
2023-02-14T04:33:23.436Z,3.60
2023-02-14T04:36:25.278Z,3.60
2023-02-14T04:39:27.379Z,6.30
2023-02-14T04:42:29.382Z,5.10
2023-02-14T04:45:31.278Z,3.40
2023-02-14T04:48:33.158Z,3.00
2023-02-14T04:51:35.854Z,2.13
2023-02-14T04:54:37.869Z,1.73
2023-02-14T04:57:40.319Z,1.47
2023-02-14T05:00:42.379Z,1.43
2023-02-14T05:03:44.329Z,1.50
2023-02-14T05:06:46.517Z,1.27
2023-02-14T05:09:48.447Z,1.00
2023-02-14T05:12:50.430Z,1.73
2023-02-14T05:15:52.577Z,2.20
2023-02-14T05:18:54.540Z,2.40
2023-02-14T05:21:56.560Z,2.93
2023-02-14T05:24:58.474Z,3.87
2023-02-14T05:28:00.399Z,2.43
2023-02-14T05:31:02.683Z,1.77
2023-02-14T05:34:05.043Z,1.70
2023-02-14T05:37:06.991Z,1.33
2023-02-14T05:40:09.673Z,1.10
2023-02-14T05:43:12.464Z,2.27
2023-02-14T05:46:14.617Z,2.37
2023-02-14T05:49:16.699Z,1.93
2023-02-14T05:52:18.645Z,2.83
2023-02-14T05:55:20.591Z,2.23
2023-02-14T05:58:22.639Z,2.67
2023-02-14T06:01:24.589Z,2.67
2023-02-14T06:04:26.957Z,2.17
2023-02-14T06:07:28.912Z,2.47
2023-02-14T06:10:31.405Z,2.77
2023-02-14T06:13:33.320Z,5.17
2023-02-14T06:16:35.647Z,5.33
2023-02-14T06:19:37.723Z,7.00
2023-02-14T06:22:39.677Z,7.13
2023-02-14T06:25:41.545Z,7.30
2023-02-14T06:28:43.907Z,7.03
2023-02-14T06:31:46.001Z,6.20
2023-02-14T06:34:48.338Z,8.57
2023-02-14T06:37:50.223Z,9.03
2023-02-14T06:40:52.180Z,9.43
2023-02-14T06:43:54.115Z,9.90
2023-02-14T06:46:56.318Z,11.03
2023-02-14T06:50:00.440Z,9.63
2023-02-14T06:53:02.515Z,15.40
2023-02-14T06:56:05.047Z,13.93
2023-02-14T06:59:07.622Z,13.33
2023-02-14T07:02:11.812Z,11.37
2023-02-14T07:05:15.677Z,11.03
2023-02-14T07:08:17.654Z,11.30
2023-02-14T07:11:20.351Z,10.60
2023-02-14T07:14:22.329Z,12.13
2023-02-14T07:17:24.545Z,10.97
2023-02-14T07:20:27.507Z,10.80
2023-02-14T07:23:29.460Z,10.47
2023-02-14T07:26:31.387Z,11.03
2023-02-14T07:29:33.421Z,11.60
2023-02-14T07:32:35.518Z,11.97
2023-02-14T07:35:37.467Z,12.47
2023-02-14T07:38:39.458Z,11.00
2023-02-14T07:41:41.498Z,11.60
2023-02-14T07:44:46.158Z,10.57
2023-02-14T07:47:50.130Z,12.60
2023-02-14T07:50:53.181Z,11.33
2023-02-14T07:53:55.625Z,11.33
2023-02-14T07:56:57.664Z,10.77
2023-02-14T07:59:59.647Z,9.13
2023-02-14T08:03:01.596Z,9.17
2023-02-14T08:06:03.994Z,8.37
2023-02-14T08:09:05.910Z,7.63
2023-02-14T08:12:26.779Z,7.43
2023-02-14T08:15:52.608Z,7.07
2023-02-14T08:18:54.647Z,6.93
2023-02-14T08:21:56.599Z,8.13
2023-02-14T08:24:58.593Z,6.03
2023-02-14T08:28:02.878Z,4.60
2023-02-14T08:31:05.253Z,6.80
2023-02-14T08:34:07.671Z,8.63
2023-02-14T08:37:11.016Z,10.10
2023-02-14T08:40:13.363Z,8.57
2023-02-14T08:43:15.469Z,8.50
2023-02-14T08:46:17.490Z,7.13
2023-02-14T08:49:20.289Z,8.10
2023-02-14T08:52:22.186Z,8.47
2023-02-14T08:55:24.265Z,8.43
2023-02-14T08:58:26.259Z,9.20
2023-02-14T09:01:29.376Z,8.87
2023-02-14T09:04:31.581Z,8.70
2023-02-14T09:07:33.743Z,7.40
2023-02-14T09:10:35.755Z,7.37
2023-02-14T09:13:38.643Z,6.60
2023-02-14T09:16:41.373Z,6.63
2023-02-14T09:19:44.584Z,7.60
2023-02-14T09:22:48.655Z,8.53
2023-02-14T09:25:51.088Z,7.77
2023-02-14T09:28:53.094Z,6.93
2023-02-14T09:31:56.513Z,7.60
2023-02-14T09:34:58.501Z,8.20
2023-02-14T09:38:00.812Z,9.43
2023-02-14T09:41:07.448Z,8.50
2023-02-14T09:44:34.894Z,9.53
2023-02-14T09:47:39.642Z,9.13
2023-02-14T09:50:56.517Z,8.97
2023-02-14T09:54:14.039Z,9.03
2023-02-14T09:57:42.591Z,7.70
2023-02-14T10:01:11.715Z,8.13
2023-02-14T10:04:39.642Z,8.23
2023-02-14T10:07:52.531Z,8.53
2023-02-14T10:11:06.126Z,8.00
2023-02-14T10:14:16.432Z,9.57
2023-02-14T10:17:45.122Z,8.93
2023-02-14T10:20:53.295Z,8.63
2023-02-14T10:24:00.997Z,9.23
2023-02-14T10:27:30.709Z,9.40
2023-02-14T10:30:40.061Z,9.00
2023-02-14T10:33:44.449Z,8.43
2023-02-14T10:37:10.475Z,8.67
2023-02-14T10:40:48.154Z,9.10
2023-02-14T10:44:13.464Z,8.77
2023-02-14T10:47:30.890Z,9.23
2023-02-14T10:50:54.241Z,9.57
2023-02-14T10:54:17.690Z,9.47
2023-02-14T10:57:26.454Z,9.20
2023-02-14T11:00:37.388Z,9.63
2023-02-14T11:03:44.097Z,10.10
2023-02-14T11:06:49.415Z,9.70
2023-02-14T11:09:51.475Z,9.53
2023-02-14T11:12:53.779Z,10.87
2023-02-14T11:16:01.629Z,10.10
2023-02-14T11:19:34.121Z,9.37
2023-02-14T11:22:37.569Z,9.90
2023-02-14T11:25:39.545Z,9.47
2023-02-14T11:28:57.469Z,10.63
2023-02-14T11:32:12.579Z,9.90
2023-02-14T11:35:19.363Z,9.20
2023-02-14T11:38:34.285Z,9.47
2023-02-14T11:41:56.333Z,9.63
2023-02-14T11:44:59.806Z,8.47
2023-02-14T11:48:22.041Z,8.40
2023-02-14T11:51:45.696Z,9.03
2023-02-14T11:54:49.816Z,8.03
2023-02-14T11:57:52.105Z,8.83
2023-02-14T12:00:54.511Z,9.13
2023-02-14T12:04:02.932Z,8.60
2023-02-14T12:07:29.216Z,8.97
2023-02-14T12:10:39.296Z,8.70
2023-02-14T12:13:41.364Z,7.80
2023-02-14T12:17:10.296Z,8.70
2023-02-14T12:20:27.019Z,8.97
2023-02-14T12:23:38.071Z,8.63
2023-02-14T12:26:48.119Z,8.80
2023-02-14T12:30:17.207Z,8.43
2023-02-14T12:33:20.805Z,8.37
2023-02-14T12:36:59.660Z,9.17
2023-02-14T12:40:38.795Z,8.67
2023-02-14T12:43:54.735Z,8.60
2023-02-14T12:47:24.925Z,8.83
2023-02-14T12:50:54.094Z,8.47
2023-02-14T12:54:07.974Z,8.30
2023-02-14T12:57:38.352Z,8.10
2023-02-14T13:01:02.051Z,8.33
2023-02-14T13:04:34.434Z,8.37
2023-02-14T13:08:21.723Z,9.00
2023-02-14T13:11:48.527Z,8.80
2023-02-14T13:15:16.320Z,8.37
2023-02-14T13:18:37.197Z,9.27
2023-02-14T13:21:40.591Z,8.63
2023-02-14T13:24:49.166Z,8.37
2023-02-14T13:27:52.228Z,8.57
2023-02-14T13:30:56.140Z,8.77
2023-02-14T13:34:02.362Z,8.57
2023-02-14T13:37:09.215Z,9.27
2023-02-14T13:40:19.718Z,9.80
2023-02-14T13:43:56.550Z,9.03
2023-02-14T13:46:58.660Z,10.50
2023-02-14T13:50:03.655Z,9.27
2023-02-14T13:53:05.917Z,9.57
2023-02-14T13:56:17.228Z,8.90
2023-02-14T13:59:29.131Z,10.07
2023-02-14T14:02:33.112Z,9.03
2023-02-14T14:05:47.925Z,9.17
2023-02-14T14:08:53.771Z,9.33
2023-02-14T14:11:56.219Z,9.93
2023-02-14T14:15:07.366Z,9.80
2023-02-14T14:18:15.512Z,8.10
2023-02-14T14:21:27.799Z,7.93
2023-02-14T14:24:35.366Z,7.07
2023-02-14T14:27:46.725Z,7.60
2023-02-14T14:30:50.123Z,8.00
2023-02-14T14:34:01.484Z,7.03
2023-02-14T14:37:15.391Z,6.97
2023-02-14T14:40:28.957Z,6.83
2023-02-14T14:43:34.230Z,7.40
2023-02-14T14:46:37.326Z,6.20
2023-02-14T14:49:39.357Z,5.93
2023-02-14T14:52:47.816Z,6.90
2023-02-14T14:55:52.371Z,7.00
2023-02-14T14:58:55.178Z,5.57
2023-02-14T15:01:57.497Z,6.20
2023-02-14T15:05:14.473Z,6.83
2023-02-14T15:08:19.272Z,6.20
2023-02-14T15:11:48.909Z,7.30
2023-02-14T15:14:57.447Z,7.00
2023-02-14T15:17:59.438Z,6.40
2023-02-14T15:21:03.030Z,6.03
2023-02-14T15:24:05.462Z,6.57
2023-02-14T15:27:14.934Z,6.07
2023-02-14T15:30:21.183Z,5.23
2023-02-14T15:33:23.186Z,5.43
2023-02-14T15:36:25.525Z,5.93
2023-02-14T15:39:33.465Z,6.50
2023-02-14T15:42:41.549Z,6.20
2023-02-14T15:45:45.276Z,6.23
2023-02-14T15:48:47.921Z,5.57
2023-02-14T15:51:50.848Z,6.17
2023-02-14T15:54:53.538Z,5.17
2023-02-14T15:57:59.509Z,5.07
2023-02-14T16:01:02.665Z,5.83
2023-02-14T16:04:07.147Z,4.87
2023-02-14T16:07:28.819Z,5.33
2023-02-14T16:10:37.112Z,6.03
2023-02-14T16:13:42.453Z,5.77
2023-02-14T16:16:58.860Z,5.90
2023-02-14T16:20:21.862Z,6.17
2023-02-14T16:23:29.223Z,5.00
2023-02-14T16:26:33.876Z,5.90
2023-02-14T16:29:36.728Z,5.93
2023-02-14T16:32:38.952Z,5.80
2023-02-14T16:35:41.428Z,5.20
2023-02-14T16:38:45.168Z,5.47
2023-02-14T16:41:48.632Z,5.73
2023-02-14T16:44:51.433Z,5.40
2023-02-14T16:47:53.762Z,5.60
2023-02-14T16:50:57.574Z,6.40
2023-02-14T16:54:01.775Z,5.90
2023-02-14T16:57:04.580Z,5.80
2023-02-14T17:00:08.090Z,5.20
2023-02-14T17:03:12.157Z,5.33
2023-02-14T17:06:18.460Z,6.17
2023-02-14T17:09:25.494Z,6.00
2023-02-14T17:12:31.700Z,5.67
2023-02-14T17:15:34.397Z,5.40
2023-02-14T17:18:37.599Z,5.07
2023-02-14T17:21:40.498Z,5.83
2023-02-14T17:24:42.668Z,5.60
2023-02-14T17:27:46.457Z,5.70
2023-02-14T17:30:48.541Z,5.10
2023-02-14T17:33:50.610Z,5.20
2023-02-14T17:36:52.604Z,4.53
2023-02-14T17:39:54.653Z,6.07
2023-02-14T17:42:57.019Z,7.37
2023-02-14T17:45:59.404Z,6.60
2023-02-14T17:49:04.409Z,5.77
2023-02-14T17:52:06.406Z,5.03
2023-02-14T17:55:10.367Z,5.43
2023-02-14T17:58:14.319Z,5.27
2023-02-14T18:01:18.126Z,5.00
2023-02-14T18:04:20.131Z,4.10
2023-02-14T18:07:24.311Z,3.33
2023-02-14T18:10:26.340Z,4.23
2023-02-14T18:13:28.876Z,4.10
2023-02-14T18:16:30.902Z,3.43
2023-02-14T18:19:33.356Z,3.73
2023-02-14T18:22:35.500Z,3.53
2023-02-14T18:25:38.418Z,3.87
2023-02-14T18:28:40.898Z,3.87
2023-02-14T18:31:44.060Z,3.73
2023-02-14T18:34:46.292Z,10.43
2023-02-14T18:37:48.372Z,17.37
2023-02-14T18:40:50.297Z,17.07
2023-02-14T18:43:52.441Z,18.17
2023-02-14T18:46:54.385Z,19.30
2023-02-14T18:49:56.348Z,21.20
2023-02-14T18:52:58.423Z,29.77
2023-02-14T18:56:05.233Z,20.80
2023-02-14T18:59:09.019Z,24.30
2023-02-14T19:02:11.238Z,24.20
2023-02-14T19:05:14.184Z,27.23
2023-02-14T19:08:16.219Z,28.90
2023-02-14T19:11:21.866Z,30.27
2023-02-14T19:14:24.376Z,84.43
2023-02-14T19:17:26.488Z,147.77
2023-02-14T19:20:31.894Z,38.13
2023-02-14T19:23:36.576Z,24.67
2023-02-14T19:26:41.683Z,20.87
2023-02-14T19:29:43.732Z,21.00
2023-02-14T19:32:47.941Z,21.27
2023-02-14T19:36:03.367Z,17.93
2023-02-14T19:39:06.402Z,17.93
2023-02-14T19:42:09.332Z,18.50
2023-02-14T19:45:12.941Z,19.77
2023-02-14T19:48:15.563Z,20.17
2023-02-14T19:51:30.455Z,18.00
2023-02-14T19:54:32.441Z,16.20
2023-02-14T19:57:34.505Z,16.23
2023-02-14T20:00:38.129Z,15.27
2023-02-14T20:03:40.666Z,15.90
2023-02-14T20:06:45.051Z,15.73
2023-02-14T20:09:47.217Z,16.83
2023-02-14T20:12:49.735Z,18.83
2023-02-14T20:15:52.364Z,17.63
2023-02-14T20:18:54.869Z,17.43
2023-02-14T20:21:57.000Z,18.57
2023-02-14T20:25:01.005Z,17.47
2023-02-14T20:28:03.307Z,18.17
2023-02-14T20:31:13.881Z,16.10
2023-02-14T20:34:17.299Z,16.83
2023-02-14T20:37:21.366Z,15.57
2023-02-14T20:40:24.706Z,17.00
2023-02-14T20:43:26.640Z,15.87
2023-02-14T20:46:29.280Z,15.73
2023-02-14T20:49:31.463Z,13.07
2023-02-14T20:52:38.227Z,14.17
2023-02-14T20:55:42.918Z,13.87
2023-02-14T20:58:45.443Z,14.47
2023-02-14T21:01:47.562Z,13.20
2023-02-14T21:04:49.550Z,17.53
2023-02-14T21:07:51.453Z,16.77
2023-02-14T21:10:54.176Z,15.70
2023-02-14T21:13:59.573Z,13.23
2023-02-14T21:17:05.508Z,13.27
2023-02-14T21:20:10.955Z,12.90
2023-02-14T21:23:13.425Z,13.20
2023-02-14T21:26:16.652Z,14.33
2023-02-14T21:29:20.791Z,13.50
2023-02-14T21:32:23.226Z,13.80
2023-02-14T21:35:25.913Z,14.30
2023-02-14T21:38:28.259Z,13.07
2023-02-14T21:41:31.125Z,13.10
2023-02-14T21:44:51.632Z,11.43
2023-02-14T21:48:12.260Z,11.77
2023-02-14T21:51:15.953Z,12.93
2023-02-14T21:54:18.349Z,12.87
2023-02-14T21:57:20.738Z,12.50
2023-02-14T22:00:23.042Z,12.23
2023-02-14T22:03:25.695Z,11.57
2023-02-14T22:06:28.757Z,11.60
2023-02-14T22:09:31.130Z,12.27
2023-02-14T22:12:33.160Z,11.87
2023-02-14T22:15:35.122Z,12.80
2023-02-14T22:18:37.279Z,11.03
2023-02-14T22:21:39.267Z,13.37
2023-02-14T22:24:41.347Z,12.47
2023-02-14T22:27:43.314Z,13.00
2023-02-14T22:30:45.798Z,12.13
2023-02-14T22:33:48.771Z,11.67
2023-02-14T22:36:52.037Z,12.70
2023-02-14T22:39:53.925Z,9.40
2023-02-14T22:42:56.316Z,9.13
2023-02-14T22:46:10.290Z,9.57
2023-02-14T22:49:13.966Z,9.80
2023-02-14T22:52:15.885Z,12.13
2023-02-14T22:55:18.038Z,9.57
2023-02-14T22:58:19.923Z,9.57
2023-02-14T23:01:22.579Z,8.30
2023-02-14T23:04:29.568Z,9.50
2023-02-14T23:07:31.635Z,10.30
2023-02-14T23:10:33.995Z,10.70
2023-02-14T23:13:55.514Z,10.10
2023-02-14T23:17:16.489Z,9.50
2023-02-14T23:20:37.124Z,9.27
2023-02-14T23:23:38.990Z,8.60
2023-02-14T23:26:41.015Z,8.27
2023-02-14T23:29:42.933Z,7.97
2023-02-14T23:32:45.308Z,7.63
2023-02-14T23:35:47.223Z,8.60
2023-02-14T23:38:49.224Z,8.27
2023-02-14T23:41:51.447Z,8.40
2023-02-14T23:44:53.421Z,8.53
2023-02-14T23:47:55.479Z,8.03
2023-02-14T23:51:01.303Z,7.50
2023-02-14T23:54:06.686Z,8.30
2023-02-14T23:57:09.679Z,7.50
